sensor_id;sensor_type;location;lat;lon;timestamp;P1;durP1;ratioP1;P2;durP2;ratioP2
20709;SDS011;10516;51.518;9.864;2024-01-15T00:02:01;21.58;;;11.48;;
20709;SDS011;10516;51.518;9.864;2024-01-15T00:04:28;23.17;;;13.68;;
20709;SDS011;10516;51.518;9.864;2024-01-15T00:06:53;22.42;;;12.85;;
20709;SDS011;10516;51.518;9.864;2024-01-15T00:09:18;21.33;;;11.50;;
20709;SDS011;10516;51.518;9.864;2024-01-15T00:11:44;19.27;;;12.18;;
20709;SDS011;10516;51.518;9.864;2024-01-15T00:14:09;24.45;;;12.55;;
20709;SDS011;10516;51.518;9.864;2024-01-15T00:16:35;22.48;;;11.93;;
20709;SDS011;10516;51.518;9.864;2024-01-15T00:19:00;16.00;;;8.10;;
20709;SDS011;10516;51.518;9.864;2024-01-15T00:21:26;19.55;;;11.63;;
20709;SDS011;10516;51.518;9.864;2024-01-15T00:23:52;21.73;;;12.52;;
20709;SDS011;10516;51.518;9.864;2024-01-15T00:26:18;24.25;;;12.02;;
20709;SDS011;10516;51.518;9.864;2024-01-15T00:28:44;20.20;;;11.60;;
20709;SDS011;10516;51.518;9.864;2024-01-15T00:31:09;21.13;;;12.27;;
20709;SDS011;10516;51.518;9.864;2024-01-15T00:33:34;21.20;;;10.98;;
20709;SDS011;10516;51.518;9.864;2024-01-15T00:36:00;20.58;;;10.88;;
20709;SDS011;10516;51.518;9.864;2024-01-15T00:38:25;21.92;;;11.90;;
20709;SDS011;10516;51.518;9.864;2024-01-15T00:40:51;16.35;;;8.43;;
20709;SDS011;10516;51.518;9.864;2024-01-15T00:43:16;19.88;;;10.77;;
20709;SDS011;10516;51.518;9.864;2024-01-15T00:45:44;19.33;;;11.13;;
20709;SDS011;10516;51.518;9.864;2024-01-15T00:48:09;20.25;;;10.80;;
20709;SDS011;10516;51.518;9.864;2024-01-15T00:50:35;19.67;;;11.27;;
20709;SDS011;10516;51.518;9.864;2024-01-15T00:53:00;20.10;;;11.13;;
20709;SDS011;10516;51.518;9.864;2024-01-15T00:55:26;19.50;;;11.68;;
20709;SDS011;10516;51.518;9.864;2024-01-15T00:57:53;22.55;;;10.30;;
20709;SDS011;10516;51.518;9.864;2024-01-15T01:00:18;15.57;;;10.88;;
20709;SDS011;10516;51.518;9.864;2024-01-15T01:02:43;18.40;;;10.77;;
20709;SDS011;10516;51.518;9.864;2024-01-15T01:05:09;17.50;;;10.60;;
20709;SDS011;10516;51.518;9.864;2024-01-15T01:07:34;14.15;;;9.82;;
20709;SDS011;10516;51.518;9.864;2024-01-15T01:09:59;16.55;;;7.75;;
20709;SDS011;10516;51.518;9.864;2024-01-15T01:12:25;13.75;;;9.65;;
20709;SDS011;10516;51.518;9.864;2024-01-15T01:14:50;16.00;;;9.07;;
20709;SDS011;10516;51.518;9.864;2024-01-15T01:17:16;17.75;;;11.55;;
20709;SDS011;10516;51.518;9.864;2024-01-15T01:19:41;16.67;;;9.38;;
20709;SDS011;10516;51.518;9.864;2024-01-15T01:22:06;13.15;;;8.48;;
20709;SDS011;10516;51.518;9.864;2024-01-15T01:24:32;14.45;;;7.72;;
20709;SDS011;10516;51.518;9.864;2024-01-15T01:26:57;17.05;;;9.02;;
20709;SDS011;10516;51.518;9.864;2024-01-15T01:29:22;14.95;;;8.40;;
20709;SDS011;10516;51.518;9.864;2024-01-15T01:31:48;17.27;;;9.73;;
20709;SDS011;10516;51.518;9.864;2024-01-15T01:34:14;13.95;;;8.02;;
20709;SDS011;10516;51.518;9.864;2024-01-15T01:36:40;16.10;;;9.07;;
20709;SDS011;10516;51.518;9.864;2024-01-15T01:39:06;13.00;;;8.27;;
20709;SDS011;10516;51.518;9.864;2024-01-15T01:41:31;12.48;;;8.20;;
20709;SDS011;10516;51.518;9.864;2024-01-15T01:43:56;15.75;;;9.43;;
20709;SDS011;10516;51.518;9.864;2024-01-15T01:46:22;14.68;;;7.43;;
20709;SDS011;10516;51.518;9.864;2024-01-15T01:48:48;15.80;;;7.95;;
20709;SDS011;10516;51.518;9.864;2024-01-15T01:51:14;21.33;;;10.35;;
20709;SDS011;10516;51.518;9.864;2024-01-15T01:53:40;15.75;;;9.70;;
20709;SDS011;10516;51.518;9.864;2024-01-15T01:56:05;17.88;;;10.00;;
20709;SDS011;10516;51.518;9.864;2024-01-15T01:58:32;17.92;;;7.40;;
20709;SDS011;10516;51.518;9.864;2024-01-15T02:00:58;13.75;;;9.20;;
20709;SDS011;10516;51.518;9.864;2024-01-15T02:03:24;13.60;;;8.75;;
20709;SDS011;10516;51.518;9.864;2024-01-15T02:05:50;14.10;;;8.05;;
20709;SDS011;10516;51.518;9.864;2024-01-15T02:08:17;12.38;;;7.30;;
20709;SDS011;10516;51.518;9.864;2024-01-15T02:10:43;14.15;;;8.57;;
20709;SDS011;10516;51.518;9.864;2024-01-15T02:13:09;13.73;;;7.85;;
20709;SDS011;10516;51.518;9.864;2024-01-15T02:15:35;15.90;;;8.60;;
20709;SDS011;10516;51.518;9.864;2024-01-15T02:18:01;14.50;;;6.70;;
20709;SDS011;10516;51.518;9.864;2024-01-15T02:20:31;16.15;;;6.10;;
20709;SDS011;10516;51.518;9.864;2024-01-15T02:23:03;14.65;;;7.13;;
20709;SDS011;10516;51.518;9.864;2024-01-15T02:25:39;12.27;;;6.60;;
20709;SDS011;10516;51.518;9.864;2024-01-15T02:28:07;9.85;;;5.82;;
20709;SDS011;10516;51.518;9.864;2024-01-15T02:30:39;8.85;;;5.05;;
20709;SDS011;10516;51.518;9.864;2024-01-15T02:33:05;15.98;;;8.45;;
20709;SDS011;10516;51.518;9.864;2024-01-15T02:35:31;13.63;;;6.28;;
20709;SDS011;10516;51.518;9.864;2024-01-15T02:37:58;20.30;;;6.20;;
20709;SDS011;10516;51.518;9.864;2024-01-15T02:40:23;14.20;;;8.52;;
20709;SDS011;10516;51.518;9.864;2024-01-15T02:42:48;13.77;;;7.88;;
20709;SDS011;10516;51.518;9.864;2024-01-15T02:45:14;11.77;;;6.32;;
20709;SDS011;10516;51.518;9.864;2024-01-15T02:47:39;10.55;;;5.80;;
20709;SDS011;10516;51.518;9.864;2024-01-15T02:50:05;13.55;;;6.95;;
20709;SDS011;10516;51.518;9.864;2024-01-15T02:52:30;19.10;;;8.07;;
20709;SDS011;10516;51.518;9.864;2024-01-15T02:54:56;15.90;;;8.48;;
20709;SDS011;10516;51.518;9.864;2024-01-15T02:57:21;21.75;;;9.13;;
20709;SDS011;10516;51.518;9.864;2024-01-15T02:59:46;18.05;;;8.25;;
20709;SDS011;10516;51.518;9.864;2024-01-15T03:02:12;22.83;;;6.82;;
20709;SDS011;10516;51.518;9.864;2024-01-15T03:04:37;14.82;;;7.78;;
20709;SDS011;10516;51.518;9.864;2024-01-15T03:07:02;12.80;;;7.40;;
20709;SDS011;10516;51.518;9.864;2024-01-15T03:09:28;18.80;;;9.45;;
20709;SDS011;10516;51.518;9.864;2024-01-15T03:11:53;16.85;;;7.65;;
20709;SDS011;10516;51.518;9.864;2024-01-15T03:14:19;17.92;;;9.15;;
20709;SDS011;10516;51.518;9.864;2024-01-15T03:16:45;14.48;;;7.10;;
20709;SDS011;10516;51.518;9.864;2024-01-15T03:19:11;13.48;;;5.18;;
20709;SDS011;10516;51.518;9.864;2024-01-15T03:21:36;20.92;;;7.55;;
20709;SDS011;10516;51.518;9.864;2024-01-15T03:24:02;16.05;;;7.50;;
20709;SDS011;10516;51.518;9.864;2024-01-15T03:26:27;16.00;;;7.28;;
20709;SDS011;10516;51.518;9.864;2024-01-15T03:28:53;20.00;;;8.15;;
20709;SDS011;10516;51.518;9.864;2024-01-15T03:31:18;15.32;;;8.07;;
20709;SDS011;10516;51.518;9.864;2024-01-15T03:33:43;19.27;;;6.40;;
20709;SDS011;10516;51.518;9.864;2024-01-15T03:36:09;11.10;;;6.18;;
20709;SDS011;10516;51.518;9.864;2024-01-15T03:38:35;19.65;;;7.32;;
20709;SDS011;10516;51.518;9.864;2024-01-15T03:41:05;18.38;;;7.80;;
20709;SDS011;10516;51.518;9.864;2024-01-15T03:43:31;22.88;;;8.85;;
20709;SDS011;10516;51.518;9.864;2024-01-15T03:45:56;19.85;;;7.90;;
20709;SDS011;10516;51.518;9.864;2024-01-15T03:48:22;12.90;;;6.18;;
20709;SDS011;10516;51.518;9.864;2024-01-15T03:50:47;29.33;;;8.65;;
20709;SDS011;10516;51.518;9.864;2024-01-15T03:53:14;15.70;;;9.38;;
20709;SDS011;10516;51.518;9.864;2024-01-15T03:55:39;13.93;;;6.43;;
20709;SDS011;10516;51.518;9.864;2024-01-15T03:58:04;17.83;;;6.90;;
20709;SDS011;10516;51.518;9.864;2024-01-15T04:00:30;11.38;;;5.38;;
20709;SDS011;10516;51.518;9.864;2024-01-15T04:02:55;18.75;;;7.80;;
20709;SDS011;10516;51.518;9.864;2024-01-15T04:05:21;15.82;;;9.43;;
20709;SDS011;10516;51.518;9.864;2024-01-15T04:07:47;15.18;;;8.07;;
20709;SDS011;10516;51.518;9.864;2024-01-15T04:10:13;24.80;;;7.40;;
20709;SDS011;10516;51.518;9.864;2024-01-15T04:12:38;21.40;;;10.60;;
20709;SDS011;10516;51.518;9.864;2024-01-15T04:15:04;15.52;;;7.13;;
20709;SDS011;10516;51.518;9.864;2024-01-15T04:17:29;14.52;;;6.90;;
20709;SDS011;10516;51.518;9.864;2024-01-15T04:19:55;18.85;;;7.50;;
20709;SDS011;10516;51.518;9.864;2024-01-15T04:22:20;22.10;;;5.55;;
20709;SDS011;10516;51.518;9.864;2024-01-15T04:24:46;19.83;;;7.97;;
20709;SDS011;10516;51.518;9.864;2024-01-15T04:27:12;11.40;;;5.47;;
20709;SDS011;10516;51.518;9.864;2024-01-15T04:29:38;15.23;;;5.28;;
20709;SDS011;10516;51.518;9.864;2024-01-15T04:32:04;21.63;;;8.07;;
20709;SDS011;10516;51.518;9.864;2024-01-15T04:34:30;7.80;;;3.83;;
20709;SDS011;10516;51.518;9.864;2024-01-15T04:36:56;23.20;;;7.85;;
20709;SDS011;10516;51.518;9.864;2024-01-15T04:39:21;17.58;;;8.65;;
20709;SDS011;10516;51.518;9.864;2024-01-15T04:41:47;13.30;;;5.47;;
20709;SDS011;10516;51.518;9.864;2024-01-15T04:44:13;20.35;;;7.95;;
20709;SDS011;10516;51.518;9.864;2024-01-15T04:46:38;21.27;;;6.93;;
20709;SDS011;10516;51.518;9.864;2024-01-15T04:49:04;13.90;;;7.18;;
20709;SDS011;10516;51.518;9.864;2024-01-15T04:51:29;19.77;;;7.90;;
20709;SDS011;10516;51.518;9.864;2024-01-15T04:53:54;12.93;;;5.28;;
20709;SDS011;10516;51.518;9.864;2024-01-15T04:56:20;20.52;;;6.63;;
20709;SDS011;10516;51.518;9.864;2024-01-15T04:58:45;23.90;;;6.80;;
20709;SDS011;10516;51.518;9.864;2024-01-15T05:01:11;22.10;;;7.18;;
20709;SDS011;10516;51.518;9.864;2024-01-15T05:03:37;21.30;;;7.38;;
20709;SDS011;10516;51.518;9.864;2024-01-15T05:06:02;18.60;;;6.32;;
20709;SDS011;10516;51.518;9.864;2024-01-15T05:08:29;16.77;;;7.13;;
20709;SDS011;10516;51.518;9.864;2024-01-15T05:10:54;20.77;;;6.53;;
20709;SDS011;10516;51.518;9.864;2024-01-15T05:13:20;18.33;;;7.57;;
20709;SDS011;10516;51.518;9.864;2024-01-15T05:15:45;18.00;;;7.72;;
20709;SDS011;10516;51.518;9.864;2024-01-15T05:18:10;10.30;;;4.95;;
20709;SDS011;10516;51.518;9.864;2024-01-15T05:20:36;18.00;;;5.32;;
20709;SDS011;10516;51.518;9.864;2024-01-15T05:23:01;17.05;;;6.28;;
20709;SDS011;10516;51.518;9.864;2024-01-15T05:25:27;17.05;;;7.15;;
20709;SDS011;10516;51.518;9.864;2024-01-15T05:27:52;17.15;;;6.75;;
20709;SDS011;10516;51.518;9.864;2024-01-15T05:30:17;8.88;;;4.65;;
20709;SDS011;10516;51.518;9.864;2024-01-15T05:32:43;18.25;;;7.95;;
20709;SDS011;10516;51.518;9.864;2024-01-15T05:35:08;18.70;;;6.75;;
20709;SDS011;10516;51.518;9.864;2024-01-15T05:37:33;20.58;;;6.97;;
20709;SDS011;10516;51.518;9.864;2024-01-15T05:39:59;21.02;;;6.45;;
20709;SDS011;10516;51.518;9.864;2024-01-15T05:42:24;19.30;;;8.55;;
20709;SDS011;10516;51.518;9.864;2024-01-15T05:44:50;12.43;;;5.65;;
20709;SDS011;10516;51.518;9.864;2024-01-15T05:47:15;12.80;;;6.32;;
20709;SDS011;10516;51.518;9.864;2024-01-15T05:49:40;13.85;;;6.88;;
20709;SDS011;10516;51.518;9.864;2024-01-15T05:52:06;13.65;;;6.63;;
20709;SDS011;10516;51.518;9.864;2024-01-15T05:54:31;15.85;;;7.47;;
20709;SDS011;10516;51.518;9.864;2024-01-15T05:56:57;23.13;;;9.63;;
20709;SDS011;10516;51.518;9.864;2024-01-15T05:59:23;12.95;;;5.53;;
20709;SDS011;10516;51.518;9.864;2024-01-15T06:01:50;16.23;;;6.07;;
20709;SDS011;10516;51.518;9.864;2024-01-15T06:04:15;22.67;;;6.68;;
20709;SDS011;10516;51.518;9.864;2024-01-15T06:06:41;12.73;;;6.65;;
20709;SDS011;10516;51.518;9.864;2024-01-15T06:09:06;18.35;;;8.18;;
20709;SDS011;10516;51.518;9.864;2024-01-15T06:11:32;15.80;;;6.10;;
20709;SDS011;10516;51.518;9.864;2024-01-15T06:13:57;18.33;;;6.13;;
20709;SDS011;10516;51.518;9.864;2024-01-15T06:16:23;13.40;;;6.68;;
20709;SDS011;10516;51.518;9.864;2024-01-15T06:18:49;16.40;;;7.35;;
20709;SDS011;10516;51.518;9.864;2024-01-15T06:21:15;15.95;;;6.70;;
20709;SDS011;10516;51.518;9.864;2024-01-15T06:23:41;19.80;;;7.78;;
20709;SDS011;10516;51.518;9.864;2024-01-15T06:26:06;9.68;;;3.50;;
20709;SDS011;10516;51.518;9.864;2024-01-15T06:28:32;17.45;;;6.47;;
20709;SDS011;10516;51.518;9.864;2024-01-15T06:30:57;17.95;;;7.95;;
20709;SDS011;10516;51.518;9.864;2024-01-15T06:33:23;17.85;;;7.93;;
20709;SDS011;10516;51.518;9.864;2024-01-15T06:35:49;17.15;;;7.35;;
20709;SDS011;10516;51.518;9.864;2024-01-15T06:38:14;19.27;;;8.13;;
20709;SDS011;10516;51.518;9.864;2024-01-15T06:40:40;23.70;;;9.20;;
20709;SDS011;10516;51.518;9.864;2024-01-15T06:43:10;19.60;;;7.70;;
20709;SDS011;10516;51.518;9.864;2024-01-15T06:45:39;20.52;;;8.80;;
20709;SDS011;10516;51.518;9.864;2024-01-15T06:48:04;16.70;;;5.97;;
20709;SDS011;10516;51.518;9.864;2024-01-15T06:50:30;9.88;;;4.20;;
20709;SDS011;10516;51.518;9.864;2024-01-15T06:52:56;13.98;;;6.32;;
20709;SDS011;10516;51.518;9.864;2024-01-15T06:55:21;15.02;;;7.68;;
20709;SDS011;10516;51.518;9.864;2024-01-15T06:57:46;17.10;;;8.75;;
20709;SDS011;10516;51.518;9.864;2024-01-15T07:00:12;13.35;;;7.45;;
20709;SDS011;10516;51.518;9.864;2024-01-15T07:02:38;20.85;;;10.02;;
20709;SDS011;10516;51.518;9.864;2024-01-15T07:05:03;14.02;;;6.20;;
20709;SDS011;10516;51.518;9.864;2024-01-15T07:07:30;14.93;;;7.10;;
20709;SDS011;10516;51.518;9.864;2024-01-15T07:09:56;15.15;;;6.25;;
20709;SDS011;10516;51.518;9.864;2024-01-15T07:12:21;14.15;;;7.45;;
20709;SDS011;10516;51.518;9.864;2024-01-15T07:14:46;15.82;;;8.13;;
20709;SDS011;10516;51.518;9.864;2024-01-15T07:17:13;11.73;;;7.22;;
20709;SDS011;10516;51.518;9.864;2024-01-15T07:19:38;14.48;;;8.07;;
20709;SDS011;10516;51.518;9.864;2024-01-15T07:22:06;11.25;;;6.43;;
20709;SDS011;10516;51.518;9.864;2024-01-15T07:24:31;13.90;;;7.78;;
20709;SDS011;10516;51.518;9.864;2024-01-15T07:26:59;13.50;;;8.23;;
20709;SDS011;10516;51.518;9.864;2024-01-15T07:29:26;12.15;;;6.43;;
20709;SDS011;10516;51.518;9.864;2024-01-15T07:31:51;22.42;;;8.55;;
20709;SDS011;10516;51.518;9.864;2024-01-15T07:34:17;20.73;;;8.07;;
20709;SDS011;10516;51.518;9.864;2024-01-15T07:36:46;18.70;;;9.52;;
20709;SDS011;10516;51.518;9.864;2024-01-15T07:39:11;17.42;;;8.55;;
20709;SDS011;10516;51.518;9.864;2024-01-15T07:41:37;19.70;;;9.02;;
20709;SDS011;10516;51.518;9.864;2024-01-15T07:44:02;17.55;;;8.63;;
20709;SDS011;10516;51.518;9.864;2024-01-15T07:46:28;19.83;;;9.70;;
20709;SDS011;10516;51.518;9.864;2024-01-15T07:48:54;16.15;;;6.93;;
20709;SDS011;10516;51.518;9.864;2024-01-15T07:51:22;20.50;;;8.45;;
20709;SDS011;10516;51.518;9.864;2024-01-15T07:53:53;16.13;;;7.38;;
20709;SDS011;10516;51.518;9.864;2024-01-15T07:56:19;16.40;;;8.20;;
20709;SDS011;10516;51.518;9.864;2024-01-15T07:58:44;15.95;;;7.93;;
20709;SDS011;10516;51.518;9.864;2024-01-15T08:01:10;14.93;;;8.18;;
20709;SDS011;10516;51.518;9.864;2024-01-15T08:03:35;13.23;;;7.32;;
20709;SDS011;10516;51.518;9.864;2024-01-15T08:06:00;10.75;;;6.25;;
20709;SDS011;10516;51.518;9.864;2024-01-15T08:08:26;10.43;;;5.07;;
20709;SDS011;10516;51.518;9.864;2024-01-15T08:10:52;13.77;;;6.72;;
20709;SDS011;10516;51.518;9.864;2024-01-15T08:13:18;10.32;;;6.15;;
20709;SDS011;10516;51.518;9.864;2024-01-15T08:15:43;4.45;;;3.88;;
20709;SDS011;10516;51.518;9.864;2024-01-15T08:18:09;13.25;;;7.07;;
20709;SDS011;10516;51.518;9.864;2024-01-15T08:20:34;14.48;;;7.68;;
20709;SDS011;10516;51.518;9.864;2024-01-15T08:23:06;9.95;;;5.82;;
20709;SDS011;10516;51.518;9.864;2024-01-15T08:25:31;13.40;;;7.53;;
20709;SDS011;10516;51.518;9.864;2024-01-15T08:27:57;24.98;;;8.45;;
20709;SDS011;10516;51.518;9.864;2024-01-15T08:30:22;11.85;;;5.68;;
20709;SDS011;10516;51.518;9.864;2024-01-15T08:32:52;24.83;;;7.45;;
20709;SDS011;10516;51.518;9.864;2024-01-15T08:35:18;16.25;;;6.97;;
20709;SDS011;10516;51.518;9.864;2024-01-15T08:37:47;24.13;;;8.95;;
20709;SDS011;10516;51.518;9.864;2024-01-15T08:40:14;16.52;;;7.22;;
20709;SDS011;10516;51.518;9.864;2024-01-15T08:42:40;16.38;;;7.10;;
20709;SDS011;10516;51.518;9.864;2024-01-15T08:45:06;10.48;;;5.95;;
20709;SDS011;10516;51.518;9.864;2024-01-15T08:47:31;12.20;;;7.55;;
20709;SDS011;10516;51.518;9.864;2024-01-15T08:49:57;28.42;;;12.27;;
20709;SDS011;10516;51.518;9.864;2024-01-15T08:52:23;19.42;;;7.45;;
20709;SDS011;10516;51.518;9.864;2024-01-15T08:54:49;15.55;;;6.47;;
20709;SDS011;10516;51.518;9.864;2024-01-15T08:57:14;18.35;;;8.18;;
20709;SDS011;10516;51.518;9.864;2024-01-15T08:59:39;18.85;;;8.65;;
20709;SDS011;10516;51.518;9.864;2024-01-15T09:02:06;26.75;;;8.65;;
20709;SDS011;10516;51.518;9.864;2024-01-15T09:04:32;13.02;;;8.05;;
20709;SDS011;10516;51.518;9.864;2024-01-15T09:06:58;20.98;;;8.75;;
20709;SDS011;10516;51.518;9.864;2024-01-15T09:09:23;20.05;;;8.07;;
20709;SDS011;10516;51.518;9.864;2024-01-15T09:11:49;17.13;;;8.65;;
20709;SDS011;10516;51.518;9.864;2024-01-15T09:14:15;19.17;;;9.52;;
20709;SDS011;10516;51.518;9.864;2024-01-15T09:16:40;17.92;;;10.13;;
20709;SDS011;10516;51.518;9.864;2024-01-15T09:19:06;20.77;;;9.70;;
20709;SDS011;10516;51.518;9.864;2024-01-15T09:21:31;18.10;;;8.63;;
20709;SDS011;10516;51.518;9.864;2024-01-15T09:23:56;18.00;;;8.98;;
20709;SDS011;10516;51.518;9.864;2024-01-15T09:26:22;16.98;;;8.65;;
20709;SDS011;10516;51.518;9.864;2024-01-15T09:28:47;19.75;;;10.52;;
20709;SDS011;10516;51.518;9.864;2024-01-15T09:31:12;24.90;;;8.95;;
20709;SDS011;10516;51.518;9.864;2024-01-15T09:33:38;19.92;;;9.18;;
20709;SDS011;10516;51.518;9.864;2024-01-15T09:36:03;19.90;;;8.80;;
20709;SDS011;10516;51.518;9.864;2024-01-15T09:38:29;19.48;;;9.98;;
20709;SDS011;10516;51.518;9.864;2024-01-15T09:40:56;14.65;;;8.20;;
20709;SDS011;10516;51.518;9.864;2024-01-15T09:43:22;18.30;;;8.25;;
20709;SDS011;10516;51.518;9.864;2024-01-15T09:45:47;14.48;;;8.95;;
20709;SDS011;10516;51.518;9.864;2024-01-15T09:48:14;21.50;;;10.13;;
20709;SDS011;10516;51.518;9.864;2024-01-15T09:50:40;20.73;;;8.82;;
20709;SDS011;10516;51.518;9.864;2024-01-15T09:53:05;21.33;;;8.48;;
20709;SDS011;10516;51.518;9.864;2024-01-15T09:55:31;17.42;;;8.80;;
20709;SDS011;10516;51.518;9.864;2024-01-15T09:57:57;15.95;;;7.85;;
20709;SDS011;10516;51.518;9.864;2024-01-15T10:00:25;15.82;;;7.97;;
20709;SDS011;10516;51.518;9.864;2024-01-15T10:02:51;15.95;;;7.93;;
20709;SDS011;10516;51.518;9.864;2024-01-15T10:05:17;14.43;;;7.28;;
20709;SDS011;10516;51.518;9.864;2024-01-15T10:07:42;15.73;;;8.88;;
20709;SDS011;10516;51.518;9.864;2024-01-15T10:10:11;13.57;;;7.65;;
20709;SDS011;10516;51.518;9.864;2024-01-15T10:12:36;10.80;;;6.88;;
20709;SDS011;10516;51.518;9.864;2024-01-15T10:15:02;11.30;;;7.18;;
20709;SDS011;10516;51.518;9.864;2024-01-15T10:17:29;9.95;;;6.70;;
20709;SDS011;10516;51.518;9.864;2024-01-15T10:19:56;12.15;;;6.18;;
20709;SDS011;10516;51.518;9.864;2024-01-15T10:22:21;11.77;;;7.05;;
20709;SDS011;10516;51.518;9.864;2024-01-15T10:24:47;9.98;;;6.70;;
20709;SDS011;10516;51.518;9.864;2024-01-15T10:27:12;10.63;;;4.72;;
20709;SDS011;10516;51.518;9.864;2024-01-15T10:29:37;8.77;;;5.50;;
20709;SDS011;10516;51.518;9.864;2024-01-15T10:32:06;9.00;;;5.10;;
20709;SDS011;10516;51.518;9.864;2024-01-15T10:34:33;9.30;;;5.75;;
20709;SDS011;10516;51.518;9.864;2024-01-15T10:36:58;9.68;;;6.45;;
20709;SDS011;10516;51.518;9.864;2024-01-15T10:39:24;8.40;;;5.95;;
20709;SDS011;10516;51.518;9.864;2024-01-15T10:41:50;13.52;;;6.40;;
20709;SDS011;10516;51.518;9.864;2024-01-15T10:44:18;8.63;;;6.30;;
20709;SDS011;10516;51.518;9.864;2024-01-15T10:46:44;15.10;;;7.35;;
20709;SDS011;10516;51.518;9.864;2024-01-15T10:49:11;11.90;;;6.18;;
20709;SDS011;10516;51.518;9.864;2024-01-15T10:51:37;9.13;;;5.22;;
20709;SDS011;10516;51.518;9.864;2024-01-15T10:54:02;12.25;;;5.88;;
20709;SDS011;10516;51.518;9.864;2024-01-15T10:56:30;6.65;;;3.65;;
20709;SDS011;10516;51.518;9.864;2024-01-15T10:58:57;8.75;;;4.55;;
20709;SDS011;10516;51.518;9.864;2024-01-15T11:01:23;12.30;;;4.85;;
20709;SDS011;10516;51.518;9.864;2024-01-15T11:03:49;7.18;;;4.13;;
20709;SDS011;10516;51.518;9.864;2024-01-15T11:06:18;11.85;;;4.55;;
20709;SDS011;10516;51.518;9.864;2024-01-15T11:08:50;6.40;;;3.80;;
20709;SDS011;10516;51.518;9.864;2024-01-15T11:11:21;8.73;;;4.03;;
20709;SDS011;10516;51.518;9.864;2024-01-15T11:13:47;6.47;;;3.85;;
20709;SDS011;10516;51.518;9.864;2024-01-15T11:16:15;10.73;;;3.90;;
20709;SDS011;10516;51.518;9.864;2024-01-15T11:21:22;7.57;;;4.03;;
20709;SDS011;10516;51.518;9.864;2024-01-15T11:23:55;6.18;;;3.10;;
20709;SDS011;10516;51.518;9.864;2024-01-15T11:29:07;4.70;;;3.83;;
20709;SDS011;10516;51.518;9.864;2024-01-15T11:34:05;6.40;;;3.38;;
20709;SDS011;10516;51.518;9.864;2024-01-15T11:42:00;9.32;;;4.68;;
20709;SDS011;10516;51.518;9.864;2024-01-15T11:44:26;9.13;;;4.63;;
20709;SDS011;10516;51.518;9.864;2024-01-15T11:46:59;5.38;;;4.00;;
20709;SDS011;10516;51.518;9.864;2024-01-15T11:50:11;7.95;;;3.20;;
20709;SDS011;10516;51.518;9.864;2024-01-15T11:52:31;5.93;;;4.03;;
20709;SDS011;10516;51.518;9.864;2024-01-15T11:55:01;7.43;;;3.70;;
20709;SDS011;10516;51.518;9.864;2024-01-15T11:57:42;7.47;;;4.20;;
20709;SDS011;10516;51.518;9.864;2024-01-15T12:00:10;5.85;;;3.83;;
20709;SDS011;10516;51.518;9.864;2024-01-15T12:02:38;9.10;;;3.40;;
20709;SDS011;10516;51.518;9.864;2024-01-15T12:05:05;11.68;;;3.72;;
20709;SDS011;10516;51.518;9.864;2024-01-15T12:07:31;7.25;;;3.75;;
20709;SDS011;10516;51.518;9.864;2024-01-15T12:09:57;8.25;;;3.80;;
20709;SDS011;10516;51.518;9.864;2024-01-15T12:12:37;2.83;;;2.50;;
20709;SDS011;10516;51.518;9.864;2024-01-15T12:15:04;9.63;;;4.65;;
20709;SDS011;10516;51.518;9.864;2024-01-15T12:17:30;8.05;;;4.38;;
20709;SDS011;10516;51.518;9.864;2024-01-15T12:19:56;11.43;;;3.85;;
20709;SDS011;10516;51.518;9.864;2024-01-15T12:22:22;9.52;;;4.93;;
20709;SDS011;10516;51.518;9.864;2024-01-15T12:24:47;8.52;;;4.35;;
20709;SDS011;10516;51.518;9.864;2024-01-15T12:27:12;7.68;;;4.55;;
20709;SDS011;10516;51.518;9.864;2024-01-15T12:29:38;10.35;;;4.50;;
20709;SDS011;10516;51.518;9.864;2024-01-15T12:32:04;7.88;;;5.05;;
20709;SDS011;10516;51.518;9.864;2024-01-15T12:34:30;14.95;;;5.32;;
20709;SDS011;10516;51.518;9.864;2024-01-15T12:36:57;10.00;;;4.80;;
20709;SDS011;10516;51.518;9.864;2024-01-15T12:39:24;9.80;;;5.72;;
20709;SDS011;10516;51.518;9.864;2024-01-15T12:41:49;11.68;;;5.38;;
20709;SDS011;10516;51.518;9.864;2024-01-15T12:44:15;12.32;;;5.03;;
20709;SDS011;10516;51.518;9.864;2024-01-15T12:46:40;6.63;;;4.15;;
20709;SDS011;10516;51.518;9.864;2024-01-15T12:49:07;15.15;;;6.18;;
20709;SDS011;10516;51.518;9.864;2024-01-15T12:51:34;11.18;;;4.80;;
20709;SDS011;10516;51.518;9.864;2024-01-15T12:53:59;13.70;;;6.28;;
20709;SDS011;10516;51.518;9.864;2024-01-15T12:56:25;12.93;;;6.57;;
20709;SDS011;10516;51.518;9.864;2024-01-15T12:58:50;10.52;;;5.82;;
20709;SDS011;10516;51.518;9.864;2024-01-15T13:01:15;11.50;;;4.60;;
20709;SDS011;10516;51.518;9.864;2024-01-15T13:03:41;8.98;;;4.65;;
20709;SDS011;10516;51.518;9.864;2024-01-15T13:06:06;12.60;;;6.40;;
20709;SDS011;10516;51.518;9.864;2024-01-15T13:08:32;19.55;;;7.70;;
20709;SDS011;10516;51.518;9.864;2024-01-15T13:10:57;3.60;;;2.75;;
20709;SDS011;10516;51.518;9.864;2024-01-15T13:13:23;13.18;;;6.40;;
20709;SDS011;10516;51.518;9.864;2024-01-15T13:15:48;12.52;;;6.38;;
20709;SDS011;10516;51.518;9.864;2024-01-15T13:18:14;7.63;;;3.45;;
20709;SDS011;10516;51.518;9.864;2024-01-15T13:20:39;11.13;;;5.80;;
20709;SDS011;10516;51.518;9.864;2024-01-15T13:23:04;8.50;;;5.63;;
20709;SDS011;10516;51.518;9.864;2024-01-15T13:25:30;9.18;;;5.18;;
20709;SDS011;10516;51.518;9.864;2024-01-15T13:27:57;12.82;;;6.43;;
20709;SDS011;10516;51.518;9.864;2024-01-15T13:30:22;13.98;;;5.70;;
20709;SDS011;10516;51.518;9.864;2024-01-15T13:32:48;14.07;;;7.18;;
20709;SDS011;10516;51.518;9.864;2024-01-15T13:35:13;11.13;;;6.88;;
20709;SDS011;10516;51.518;9.864;2024-01-15T13:37:39;9.95;;;4.95;;
20709;SDS011;10516;51.518;9.864;2024-01-15T13:40:06;18.35;;;5.88;;
20709;SDS011;10516;51.518;9.864;2024-01-15T13:42:34;11.32;;;6.65;;
20709;SDS011;10516;51.518;9.864;2024-01-15T13:45:00;11.98;;;5.25;;
20709;SDS011;10516;51.518;9.864;2024-01-15T13:47:25;9.45;;;5.88;;
20709;SDS011;10516;51.518;9.864;2024-01-15T13:49:51;14.40;;;5.20;;
20709;SDS011;10516;51.518;9.864;2024-01-15T13:52:16;10.02;;;5.93;;
20709;SDS011;10516;51.518;9.864;2024-01-15T13:54:42;12.65;;;5.97;;
20709;SDS011;10516;51.518;9.864;2024-01-15T13:57:08;13.60;;;6.20;;
20709;SDS011;10516;51.518;9.864;2024-01-15T13:59:33;10.35;;;3.67;;
20709;SDS011;10516;51.518;9.864;2024-01-15T14:01:58;19.98;;;5.40;;
20709;SDS011;10516;51.518;9.864;2024-01-15T14:04:24;9.02;;;5.25;;
20709;SDS011;10516;51.518;9.864;2024-01-15T14:06:49;12.40;;;4.43;;
20709;SDS011;10516;51.518;9.864;2024-01-15T14:09:14;15.45;;;5.15;;
20709;SDS011;10516;51.518;9.864;2024-01-15T14:11:40;7.20;;;3.50;;
20709;SDS011;10516;51.518;9.864;2024-01-15T14:14:05;11.13;;;4.70;;
20709;SDS011;10516;51.518;9.864;2024-01-15T14:16:33;12.93;;;5.03;;
20709;SDS011;10516;51.518;9.864;2024-01-15T14:18:58;14.32;;;4.80;;
20709;SDS011;10516;51.518;9.864;2024-01-15T14:21:24;13.07;;;5.25;;
20709;SDS011;10516;51.518;9.864;2024-01-15T14:23:49;17.40;;;4.03;;
20709;SDS011;10516;51.518;9.864;2024-01-15T14:26:14;5.47;;;4.60;;
20709;SDS011;10516;51.518;9.864;2024-01-15T14:28:40;10.40;;;4.63;;
20709;SDS011;10516;51.518;9.864;2024-01-15T14:31:05;13.00;;;5.50;;
20709;SDS011;10516;51.518;9.864;2024-01-15T14:33:31;8.48;;;4.60;;
20709;SDS011;10516;51.518;9.864;2024-01-15T14:35:56;8.57;;;4.93;;
20709;SDS011;10516;51.518;9.864;2024-01-15T14:38:22;7.40;;;4.68;;
20709;SDS011;10516;51.518;9.864;2024-01-15T14:40:48;16.08;;;5.38;;
20709;SDS011;10516;51.518;9.864;2024-01-15T14:43:14;7.60;;;3.55;;